Time;durP1;ratioP1;P1;durP2;ratioP2;P2;SDS_P1;SDS_P2;PMS_P1;PMS_P2;Temp;Humidity;BMP_temperature;BMP_pressure;BME280_temperature;BME280_humidity;BME280_pressure;Samples;Min_cycle;Max_cycle;Signal;HPM_P1;HPM_P2
2022/03/30 00:00:13;;;;;;;;;49.50;40.25;;;;;15.88;51.82;99711.88;5018779;28;45686;-64
2022/03/30 00:02:38;;;;;;;;;42.75;36.25;;;;;15.92;53.18;99712.47;5019083;28;45639;-64
2022/03/30 00:05:05;;;;;;;;;43.00;36.50;;;;;15.87;52.16;99694.25;5035275;28;45465;-64
2022/03/30 00:07:32;;;;;;;;;42.50;37.00;;;;;15.92;51.64;99705.38;5032825;28;45391;-65
2022/03/30 00:10:01;;;;;;;;;46.00;39.25;;;;;15.93;51.55;99703.56;5020195;28;45460;-65
2022/03/30 00:12:26;;;;;;;;;45.50;37.50;;;;;15.92;52.70;99700.06;5030252;28;45515;-65
2022/03/30 00:14:52;;;;;;;;;47.50;38.00;;;;;15.88;51.84;99694.16;5019508;28;46193;-63
2022/03/30 00:17:18;;;;;;;;;46.50;38.75;;;;;15.89;52.18;99697.63;5028881;28;45519;-64
2022/03/30 00:19:44;;;;;;;;;50.00;40.50;;;;;15.92;51.82;99691.28;5025197;28;45588;-64
2022/03/30 00:22:09;;;;;;;;;47.25;40.75;;;;;15.91;52.02;99690.44;5017139;28;45666;-64
2022/03/30 00:24:35;;;;;;;;;43.75;37.75;;;;;15.90;52.08;99684.28;5034305;28;46038;-64
2022/03/30 00:27:02;;;;;;;;;48.50;40.00;;;;;15.92;51.76;99692.09;5021379;28;45444;-64
2022/03/30 00:29:28;;;;;;;;;52.75;42.50;;;;;15.90;51.62;99680.75;5019589;28;45471;-65
2022/03/30 00:31:53;;;;;;;;;45.50;37.50;;;;;15.93;52.34;99682.34;5032633;28;45637;-64
2022/03/30 00:34:18;;;;;;;;;48.50;41.25;;;;;15.92;52.57;99675.34;5029507;28;45421;-64
2022/03/30 00:36:44;;;;;;;;;51.75;42.00;;;;;15.94;52.35;99684.91;5022981;28;45440;-64
2022/03/30 00:39:09;;;;;;;;;48.00;38.75;;;;;15.91;52.05;99679.81;5030898;28;45493;-64
2022/03/30 00:41:35;;;;;;;;;46.50;39.50;;;;;15.83;51.45;99668.94;5026643;28;45414;-64
2022/03/30 00:44:14;;;;;;;;;50.25;41.50;;;;;15.87;52.37;99679.19;5034454;28;45522;-64
2022/03/30 00:46:43;;;;;;;;;52.75;43.75;;;;;15.86;52.20;99671.34;5031108;28;45419;-65
2022/03/30 00:49:09;;;;;;;;;52.75;42.25;;;;;15.84;51.95;99668.78;5025923;28;45330;-64
2022/03/30 00:51:35;;;;;;;;;51.75;43.50;;;;;15.79;52.59;99659.47;5027654;28;45873;-65
2022/03/30 00:54:00;;;;;;;;;54.00;44.50;;;;;15.70;52.46;99658.34;5026579;28;45491;-64
2022/03/30 00:56:28;;;;;;;;;52.00;43.00;;;;;15.67;52.48;99656.72;5025503;28;45458;-64
2022/03/30 00:58:54;;;;;;;;;54.00;44.25;;;;;15.61;52.56;99651.88;5017269;28;45522;-65
2022/03/30 01:01:20;;;;;;;;;56.25;45.75;;;;;15.59;53.31;99655.59;5018898;28;45622;-65
2022/03/30 01:03:46;;;;;;;;;54.25;44.25;;;;;15.57;53.55;99649.53;5028605;28;46451;-65
2022/03/30 01:06:12;;;;;;;;;48.00;40.00;;;;;15.50;53.67;99640.31;5016213;28;45495;-64
2022/03/30 01:08:37;;;;;;;;;53.75;44.00;;;;;15.56;53.23;99646.06;5028895;28;45347;-64
2022/03/30 01:11:03;;;;;;;;;50.00;40.75;;;;;15.53;53.72;99635.66;5036657;28;45404;-64
2022/03/30 01:13:28;;;;;;;;;58.00;46.00;;;;;15.45;53.82;99619.47;5036271;28;46401;-65
2022/03/30 01:15:54;;;;;;;;;52.00;41.25;;;;;15.55;52.94;99630.25;5036284;28;45503;-64
2022/03/30 01:18:19;;;;;;;;;50.75;42.50;;;;;15.56;53.57;99634.59;5036636;28;45603;-64
2022/03/30 01:20:50;;;;;;;;;55.25;43.25;;;;;15.56;53.21;99635.44;5036748;28;45462;-63
2022/03/30 01:23:17;;;;;;;;;50.50;42.25;;;;;15.58;53.57;99638.84;5036064;28;45497;-64
2022/03/30 01:25:43;;;;;;;;;53.25;42.25;;;;;15.59;53.86;99631.72;5036344;28;45525;-64
2022/03/30 01:28:08;;;;;;;;;58.25;44.75;;;;;15.62;53.71;99628.84;5036322;28;45519;-64
2022/03/30 01:33:18;;;;;;;;;55.25;43.00;;;;;15.62;54.05;99615.59;5035338;28;45457;-63
2022/03/30 01:35:46;;;;;;;;;55.50;43.50;;;;;15.65;53.70;99613.56;5029326;28;45499;-66
2022/03/30 01:38:12;;;;;;;;;53.50;42.50;;;;;15.66;53.83;99609.13;5021897;28;45511;-64
2022/03/30 01:40:38;;;;;;;;;54.25;43.25;;;;;15.64;53.23;99606.59;5034430;28;45443;-64
2022/03/30 01:43:03;;;;;;;;;54.25;43.75;;;;;15.63;54.09;99609.34;5034993;28;46352;-65
2022/03/30 01:45:29;;;;;;;;;50.25;42.25;;;;;15.66;53.79;99611.75;5035969;28;45459;-64
2022/03/30 01:47:57;;;;;;;;;50.50;42.50;;;;;15.67;54.25;99611.66;5017571;28;45324;-65
2022/03/30 01:50:25;;;;;;;;;53.00;43.50;;;;;15.66;53.99;99607.34;5025551;28;45548;-64
2022/03/30 01:52:51;;;;;;;;;55.25;45.25;;;;;15.62;53.77;99602.34;5024859;28;45589;-64
2022/03/30 01:55:17;;;;;;;;;50.50;43.00;;;;;15.58;53.55;99598.22;5023286;28;45423;-63
2022/03/30 01:57:43;;;;;;;;;61.25;46.25;;;;;15.58;54.32;99598.22;5031731;28;45499;-64
2022/03/30 02:00:10;;;;;;;;;55.25;45.25;;;;;15.52;54.99;99596.84;5020469;28;45492;-64
2022/03/30 02:02:36;;;;;;;;;56.00;46.00;;;;;15.50;54.66;99593.50;5029596;28;45470;-65
2022/03/30 02:05:02;;;;;;;;;59.25;48.75;;;;;15.46;54.45;99587.53;5021861;28;45590;-64
2022/03/30 02:07:27;;;;;;;;;57.00;46.00;;;;;15.35;54.74;99568.94;5022355;28;45605;-65
2022/03/30 02:09:52;;;;;;;;;60.25;48.25;;;;;15.49;55.06;99590.94;5031095;28;45514;-62
2022/03/30 02:12:18;;;;;;;;;54.25;44.00;;;;;15.46;54.46;99584.06;5029851;28;45537;-65
2022/03/30 02:14:43;;;;;;;;;56.00;46.00;;;;;15.44;55.43;99578.00;5035767;28;45545;-64
2022/03/30 02:17:09;;;;;;;;;60.25;48.25;;;;;15.41;54.89;99572.94;5033940;28;45489;-64
2022/03/30 02:19:34;;;;;;;;;55.00;45.50;;;;;15.38;55.55;99573.16;5035593;28;45450;-65
2022/03/30 02:22:00;;;;;;;;;56.25;45.50;;;;;15.37;55.59;99571.47;5030815;28;46177;-64
2022/03/30 02:24:25;;;;;;;;;53.75;43.75;;;;;15.34;55.58;99564.59;5024709;28;45427;-65
2022/03/30 02:26:51;;;;;;;;;57.25;46.00;;;;;15.35;54.76;99560.97;5026973;28;45446;-64
2022/03/30 02:29:17;;;;;;;;;57.00;46.75;;;;;15.37;55.58;99564.38;5023592;28;45552;-63
2022/03/30 02:31:42;;;;;;;;;60.75;49.00;;;;;15.36;55.18;99562.66;5026239;28;46233;-64
2022/03/30 02:34:11;;;;;;;;;56.25;45.75;;;;;15.34;55.24;99550.47;5034518;28;45502;-64
2022/03/30 02:36:37;;;;;;;;;52.25;43.50;;;;;15.39;55.09;99553.66;5030397;28;45546;-64
2022/03/30 02:39:04;;;;;;;;;53.00;43.50;;;;;15.40;55.83;99553.56;5023035;28;45446;-66
2022/03/30 02:41:30;;;;;;;;;58.50;47.25;;;;;15.41;55.38;99560.53;5030676;28;45896;-64
2022/03/30 02:43:55;;;;;;;;;55.50;44.50;;;;;15.42;54.93;99548.13;5021109;28;45588;-63
2022/03/30 02:46:20;;;;;;;;;57.00;46.75;;;;;15.43;55.84;99544.53;5019191;28;45526;-64
2022/03/30 02:48:46;;;;;;;;;55.00;45.50;;;;;15.43;55.61;99545.38;5026372;28;45709;-63
2022/03/30 02:51:11;;;;;;;;;58.00;47.50;;;;;15.41;54.99;99544.63;5021775;28;45560;-63
2022/03/30 02:53:37;;;;;;;;;63.75;49.75;;;;;15.35;55.93;99541.59;5019587;28;45446;-65
2022/03/30 02:56:03;;;;;;;;;54.75;46.75;;;;;15.33;55.37;99538.19;5021704;28;45458;-65
2022/03/30 02:58:29;;;;;;;;;63.00;50.25;;;;;15.33;55.07;99544.34;5030302;28;45586;-64
2022/03/30 03:00:55;;;;;;;;;53.25;45.00;;;;;15.32;55.81;99542.66;5033532;28;45537;-64
2022/03/30 03:03:21;;;;;;;;;54.25;46.25;;;;;15.32;55.82;99540.00;5027022;28;45447;-65
2022/03/30 03:05:46;;;;;;;;;57.25;47.25;;;;;15.33;55.47;99533.75;5029493;28;45515;-65
2022/03/30 03:08:12;;;;;;;;;57.75;47.75;;;;;15.35;55.93;99541.59;5031325;28;45518;-64
2022/03/30 03:10:41;;;;;;;;;55.00;47.00;;;;;15.34;55.23;99540.75;5025421;28;46305;-64
2022/03/30 03:13:07;;;;;;;;;52.25;44.00;;;;;15.36;55.11;99540.63;5028225;28;45502;-63
2022/03/30 03:15:34;;;;;;;;;57.25;46.50;;;;;15.36;55.14;99538.81;5033309;28;45482;-64
2022/03/30 03:18:03;;;;;;;;;60.50;47.00;;;;;15.35;55.91;99536.28;5026951;28;45438;-63
2022/03/30 03:20:29;;;;;;;;;60.50;48.00;;;;;15.37;55.65;99537.88;5016800;28;45431;-64
2022/03/30 03:22:56;;;;;;;;;55.75;45.75;;;;;15.34;55.97;99538.09;5017625;28;45498;-63
2022/03/30 03:25:22;;;;;;;;;56.25;46.25;;;;;15.35;55.03;99531.84;5015949;28;45483;-63
2022/03/30 03:27:47;;;;;;;;;57.50;46.50;;;;;15.34;55.68;99526.63;5031487;28;45471;-63
2022/03/30 03:30:14;;;;;;;;;56.50;47.00;;;;;15.30;55.92;99522.53;5036673;28;45491;-64
2022/03/30 03:32:40;;;;;;;;;52.75;45.00;;;;;15.26;56.06;99521.91;5031346;28;45531;-63
2022/03/30 03:35:08;;;;;;;;;56.75;48.25;;;;;15.20;56.24;99512.59;5031262;28;45407;-64
2022/03/30 03:37:34;;;;;;;;;55.25;45.50;;;;;15.24;55.67;99518.53;5022414;28;45327;-64
2022/03/30 03:39:59;;;;;;;;;60.00;48.50;;;;;15.22;56.59;99515.97;5034120;28;46562;-64
2022/03/30 03:42:25;;;;;;;;;60.75;48.25;;;;;15.22;56.09;99517.78;5028900;28;45564;-63
2022/03/30 03:44:51;;;;;;;;;60.25;48.25;;;;;15.20;56.57;99523.19;5021249;28;45422;-63
2022/03/30 03:47:16;;;;;;;;;55.75;45.50;;;;;15.15;56.40;99516.53;5025332;28;45672;-66
2022/03/30 03:49:41;;;;;;;;;52.75;44.75;;;;;15.15;56.08;99505.94;5031877;28;46022;-65
2022/03/30 03:52:07;;;;;;;;;58.75;46.50;;;;;15.21;56.43;99518.75;5030980;28;45482;-65
2022/03/30 03:54:32;;;;;;;;;61.25;48.25;;;;;15.21;56.19;99514.28;5019092;28;45522;-64
2022/03/30 03:56:58;;;;;;;;;57.25;45.75;;;;;15.21;56.32;99511.66;5029276;28;45611;-64
2022/03/30 03:59:24;;;;;;;;;56.25;45.00;;;;;15.20;56.78;99503.81;5035622;28;45471;-65
2022/03/30 04:01:49;;;;;;;;;61.50;48.50;;;;;15.26;56.87;99516.63;5033122;28;45486;-63
2022/03/30 04:04:15;;;;;;;;;55.75;46.25;;;;;15.25;55.99;99509.63;5037098;28;45483;-64
2022/03/30 04:06:42;;;;;;;;;56.25;45.00;;;;;15.25;56.46;99505.16;5025295;28;45696;-65
2022/03/30 04:09:08;;;;;;;;;59.00;46.25;;;;;15.27;56.22;99506.88;5037410;28;45382;-65
2022/03/30 04:11:34;;;;;;;;;59.50;48.25;;;;;15.27;56.68;99506.88;5036947;28;45368;-64
2022/03/30 04:13:59;;;;;;;;;57.00;47.00;;;;;15.18;56.87;99492.50;5030944;28;45556;-65
2022/03/30 04:16:24;;;;;;;;;56.50;46.75;;;;;15.29;57.00;99515.56;5024467;28;45455;-65
2022/03/30 04:18:50;;;;;;;;;59.50;48.25;;;;;15.30;55.89;99511.94;5037205;28;46139;-64
2022/03/30 04:21:15;;;;;;;;;29.75;23.75;;;;;15.28;56.06;99511.19;5031724;28;45371;-64
2022/03/30 04:23:41;;;;;;;;;60.25;49.25;;;;;15.31;56.10;99510.97;5016699;28;45399;-64
2022/03/30 04:26:09;;;;;;;;;62.50;49.50;;;;;15.29;56.16;99505.81;5022725;28;45579;-64
2022/03/30 04:28:40;;;;;;;;;62.75;50.75;;;;;15.29;56.43;99508.44;5036160;28;47037;-63
2022/03/30 04:31:06;;;;;;;;;60.25;48.75;;;;;15.26;55.93;99506.03;5023155;28;45560;-65
2022/03/30 04:33:32;;;;;;;;;57.75;47.00;;;;;15.24;56.42;99502.63;5033109;28;45486;-64
2022/03/30 04:35:57;;;;;;;;;63.75;51.75;;;;;15.24;56.21;99497.34;5021303;28;45513;-65
2022/03/30 04:38:23;;;;;;;;;61.00;48.75;;;;;15.22;56.59;99497.44;5032663;28;45441;-66
2022/03/30 04:40:48;;;;;;;;;62.50;49.75;;;;;15.17;56.87;99490.78;5033902;28;45516;-64
2022/03/30 04:43:13;;;;;;;;;61.25;49.25;;;;;15.18;57.25;99493.34;5019571;28;47043;-63
2022/03/30 04:45:39;;;;;;;;;60.25;49.00;;;;;15.15;56.75;99490.91;5030328;28;45557;-63
2022/03/30 04:48:04;;;;;;;;;62.50;49.75;;;;;15.15;56.75;99485.63;5036427;28;49807;-64
2022/03/30 04:50:30;;;;;;;;;58.50;48.50;;;;;15.16;56.83;99487.28;5033323;28;45656;-63
2022/03/30 04:52:56;;;;;;;;;59.75;48.75;;;;;15.13;56.73;99479.56;5022287;28;45336;-63
2022/03/30 04:55:22;;;;;;;;;60.75;49.25;;;;;15.16;56.54;99484.66;5017140;28;45369;-63
2022/03/30 04:57:47;;;;;;;;;65.50;52.00;;;;;15.18;56.26;99488.03;5028834;28;45530;-65
2022/03/30 05:00:13;;;;;;;;;62.00;48.50;;;;;15.20;56.58;99477.31;5036090;28;45390;-65
2022/03/30 05:02:40;;;;;;;;;55.50;46.75;;;;;15.21;56.18;99482.50;5025237;28;45497;-65
2022/03/30 05:05:10;;;;;;;;;60.50;50.00;;;;;15.23;56.33;99477.97;5036315;28;45653;-63
2022/03/30 05:07:37;;;;;;;;;64.75;52.50;;;;;15.19;56.60;99468.53;5032419;28;45690;-65
2022/03/30 05:10:05;;;;;;;;;66.00;50.25;;;;;15.25;56.96;99478.66;5022546;28;45503;-64
2022/03/30 05:12:31;;;;;;;;;57.25;47.25;;;;;15.22;56.61;99467.47;5021340;28;45606;-63
2022/03/30 05:14:56;;;;;;;;;58.75;47.25;;;;;15.25;56.51;99473.38;5026830;28;45485;-64
2022/03/30 05:17:21;;;;;;;;;60.25;50.00;;;;;15.28;56.81;99471.47;5036545;28;45482;-63
2022/03/30 05:19:48;;;;;;;;;56.25;44.75;;;;;15.28;56.59;99469.66;5036387;28;47624;-62
2022/03/30 05:22:14;;;;;;;;;59.50;49.25;;;;;15.28;56.87;99467.00;5035337;28;45497;-63
2022/03/30 05:24:39;;;;;;;;;59.25;48.50;;;;;15.24;56.34;99460.25;5036492;28;45638;-62
2022/03/30 05:27:04;;;;;;;;;66.00;52.00;;;;;15.27;56.61;99475.91;5036158;28;52807;-63
2022/03/30 05:29:30;;;;;;;;;60.25;50.50;;;;;15.27;56.82;99472.44;5036504;28;45467;-62
2022/03/30 05:31:56;;;;;;;;;59.50;49.00;;;;;15.27;56.47;99469.78;5036528;28;45483;-62
2022/03/30 05:34:24;;;;;;;;;58.00;48.25;;;;;15.27;55.97;99477.72;5036605;28;45404;-63
2022/03/30 05:36:50;;;;;;;;;63.50;49.50;;;;;15.28;56.27;99474.09;5036292;28;46030;-63
2022/03/30 05:39:15;;;;;;;;;64.50;52.25;;;;;15.27;56.32;99481.22;5036411;28;45505;-63
2022/03/30 05:41:41;;;;;;;;;56.75;47.25;;;;;15.19;55.93;99463.22;5036276;28;45418;-63
2022/03/30 05:44:06;;;;;;;;;62.50;51.00;;;;;15.27;55.65;99481.22;5036047;28;45523;-62
2022/03/30 05:46:32;;;;;;;;;60.50;49.25;;;;;15.27;56.67;99477.72;5034922;28;46399;-61
2022/03/30 05:48:58;;;;;;;;;59.75;48.00;;;;;15.23;55.91;99467.38;5035906;28;45478;-63
2022/03/30 05:51:24;;;;;;;;;64.50;51.50;;;;;15.28;56.94;99476.75;5035822;28;45374;-64
2022/03/30 05:53:49;;;;;;;;;65.50;50.25;;;;;15.28;56.26;99476.75;5035164;28;45389;-63
2022/03/30 05:56:15;;;;;;;;;60.75;48.75;;;;;15.29;56.72;99478.47;5034987;28;45993;-63
2022/03/30 05:58:40;;;;;;;;;65.00;51.00;;;;;15.26;56.50;99479.53;5034989;28;45463;-66
2022/03/30 06:01:06;;;;;;;;;64.25;50.00;;;;;15.27;57.11;99481.22;5031405;28;45355;-64
2022/03/30 06:03:37;;;;;;;;;62.00;51.75;;;;;15.10;56.75;99452.44;5019746;28;45371;-64
2022/03/30 06:06:03;;;;;;;;;63.75;51.75;;;;;15.24;57.17;99481.44;5033003;28;46601;-64
2022/03/30 06:08:28;;;;;;;;;59.00;48.50;;;;;15.22;57.02;99478.91;5035390;28;45593;-65
2022/03/30 06:10:54;;;;;;;;;55.75;45.25;;;;;15.24;56.73;99481.44;5014010;28;45545;-63
2022/03/30 06:13:20;;;;;;;;;61.25;49.00;;;;;15.24;56.77;99492.88;5015686;28;45679;-63
2022/03/30 06:15:45;;;;;;;;;63.25;50.50;;;;;15.24;56.98;99482.28;5019624;28;49460;-65
2022/03/30 06:18:11;;;;;;;;;58.75;48.25;;;;;15.22;56.53;99488.66;5030861;28;45510;-62
2022/03/30 06:20:39;;;;;;;;;57.25;48.25;;;;;15.25;57.08;99488.41;5033181;28;45395;-63
2022/03/30 06:23:04;;;;;;;;;61.25;49.00;;;;;15.25;56.89;99488.41;5030419;28;45622;-67
2022/03/30 06:25:30;;;;;;;;;64.75;52.00;;;;;15.22;57.05;99483.34;5034835;28;46041;-68
2022/03/30 06:27:57;;;;;;;;;58.50;46.75;;;;;15.25;57.08;99491.06;5030575;28;45476;-67
2022/03/30 06:30:24;;;;;;;;;61.00;49.25;;;;;15.27;56.76;99496.28;5034042;28;45451;-68
2022/03/30 06:32:51;;;;;;;;;62.50;51.00;;;;;15.27;56.96;99496.28;5034768;28;45617;-68
2022/03/30 06:35:20;;;;;;;;;60.25;49.75;;;;;15.27;56.83;99490.97;5032666;28;45548;-68
2022/03/30 06:37:46;;;;;;;;;63.75;49.00;;;;;15.27;56.97;99496.28;5019567;28;45523;-63
2022/03/30 06:40:14;;;;;;;;;64.50;51.00;;;;;15.28;57.27;99501.44;5023831;28;45384;-64
2022/03/30 06:42:40;;;;;;;;;61.50;50.25;;;;;15.29;57.23;99489.06;5029885;28;45581;-65
2022/03/30 06:45:07;;;;;;;;;59.75;48.25;;;;;15.24;56.42;99490.22;5034860;28;45999;-66
2022/03/30 06:47:33;;;;;;;;;64.25;49.00;;;;;15.29;56.60;99495.19;5033534;28;45435;-62
2022/03/30 06:49:58;;;;;;;;;63.75;50.50;;;;;15.25;56.93;99488.41;5029490;28;45484;-67
2022/03/30 06:52:24;;;;;;;;;66.25;51.25;;;;;15.30;57.22;99498.69;5024935;28;45733;-66
2022/03/30 06:54:49;;;;;;;;;58.00;47.50;;;;;15.29;57.07;99500.50;5035252;28;46206;-67
2022/03/30 06:57:14;;;;;;;;;63.50;50.75;;;;;15.29;57.70;99502.31;5034771;28;45391;-66
2022/03/30 06:59:40;;;;;;;;;64.25;49.75;;;;;15.29;57.38;99503.16;5035038;28;45415;-66
2022/03/30 07:02:06;;;;;;;;;61.00;50.50;;;;;15.30;57.07;99498.69;5034911;28;45683;-66
2022/03/30 07:04:31;;;;;;;;;63.75;51.50;;;;;15.28;57.33;99497.94;5034277;28;45458;-66
2022/03/30 07:12:26;;;;;;;;;62.25;49.00;;;;;15.22;57.48;99492.13;5034835;28;45518;-67
2022/03/30 07:14:51;;;;;;;;;62.00;50.50;;;;;15.26;57.88;99492.78;5034552;28;45652;-67
2022/03/30 07:17:17;;;;;;;;;61.00;50.25;;;;;15.22;58.78;99492.13;5034547;28;45410;-68
2022/03/30 07:19:44;;;;;;;;;60.75;49.50;;;;;15.23;58.67;99491.19;5034533;28;45498;-65
2022/03/30 07:22:13;;;;;;;;;69.75;53.50;;;;;15.19;59.11;99495.00;5034650;28;45584;-67
2022/03/30 07:24:39;;;;;;;;;66.25;52.00;;;;;14.99;58.84;99463.81;5034297;28;45971;-66
2022/03/30 07:27:04;;;;;;;;;63.75;51.25;;;;;15.01;59.96;99491.03;5034329;28;45406;-66
2022/03/30 07:29:30;;;;;;;;;61.50;50.50;;;;;14.81;61.25;99481.88;5034560;28;45596;-67
2022/03/30 07:31:58;;;;;;;;;61.00;49.50;;;;;14.77;60.58;99488.31;5034623;28;45397;-66
2022/03/30 07:34:24;;;;;;;;;63.00;51.00;;;;;14.74;61.09;99485.91;5034360;28;46233;-66
2022/03/30 07:36:49;;;;;;;;;60.00;49.00;;;;;14.79;61.42;99489.91;5034156;28;45415;-66
2022/03/30 07:39:15;;;;;;;;;67.50;53.25;;;;;14.85;60.44;99487.78;5033222;28;45324;-66
2022/03/30 07:41:42;;;;;;;;;65.00;52.25;;;;;14.86;61.14;99493.00;5034501;28;45403;-65
2022/03/30 07:44:07;;;;;;;;;66.00;53.00;;;;;14.82;60.96;99480.06;5033990;28;46124;-65
2022/03/30 07:46:33;;;;;;;;;69.00;55.25;;;;;14.82;60.93;99477.41;5034198;28;45410;-67
2022/03/30 07:48:59;;;;;;;;;64.50;52.25;;;;;14.90;61.23;99491.78;5034511;28;45371;-67
2022/03/30 07:51:25;;;;;;;;;63.75;52.00;;;;;14.89;60.26;99490.13;5034450;28;45524;-66
2022/03/30 07:53:50;;;;;;;;;67.50;54.50;;;;;14.90;60.55;99489.16;5034192;28;46301;-67
2022/03/30 07:56:16;;;;;;;;;60.75;49.00;;;;;14.89;60.74;99491.94;5034100;28;45471;-67
2022/03/30 07:58:42;;;;;;;;;65.00;52.00;;;;;14.88;60.87;99499.00;5034363;28;45595;-66
2022/03/30 08:01:07;;;;;;;;;64.75;53.00;;;;;14.85;60.75;99488.63;5034293;28;45449;-66
2022/03/30 08:03:33;;;;;;;;;64.50;52.75;;;;;14.88;60.84;99491.06;5033808;28;45522;-67
2022/03/30 08:06:00;;;;;;;;;62.75;50.25;;;;;14.90;60.93;99491.78;5033968;28;45436;-66
2022/03/30 08:08:26;;;;;;;;;66.75;52.50;;;;;14.90;60.49;99490.97;5034118;28;45520;-66
2022/03/30 08:10:51;;;;;;;;;65.50;50.25;;;;;14.92;60.59;99497.00;5032581;28;45649;-66
2022/03/30 08:13:17;;;;;;;;;67.25;53.25;;;;;14.92;60.99;99492.53;5033999;28;46486;-66
2022/03/30 08:15:43;;;;;;;;;70.00;55.75;;;;;14.87;60.60;99478.78;5034785;28;45305;-67
2022/03/30 08:18:09;;;;;;;;;64.00;51.50;;;;;14.86;60.44;99489.50;5037459;28;45332;-67
2022/03/30 08:23:38;;;;;;;;;70.50;55.25;;;;;14.68;61.21;99508.34;4994703;28;46199;-67
2022/03/30 08:26:03;;;;;;;;;67.50;54.75;;;;;14.67;61.50;99501.38;4995027;28;45441;-65
2022/03/30 08:28:29;;;;;;;;;65.25;53.25;;;;;14.67;61.69;99506.66;5014543;28;45502;-66
2022/03/30 08:30:55;;;;;;;;;62.25;50.00;;;;;14.65;61.84;99495.34;5037020;28;45559;-66
2022/03/30 08:33:26;;;;;;;;;63.00;52.00;;;;;14.66;61.95;99490.88;5035446;28;46463;-66
2022/03/30 08:35:53;;;;;;;;;64.25;50.25;;;;;14.70;62.17;99498.50;5037224;28;45499;-66
2022/03/30 08:38:18;;;;;;;;;66.75;53.25;;;;;14.71;62.36;99494.06;5037125;28;45415;-66
2022/03/30 08:40:44;;;;;;;;;65.00;52.00;;;;;14.60;62.67;99475.44;5036921;28;45384;-65
2022/03/30 08:43:10;;;;;;;;;60.75;48.75;;;;;14.66;62.16;99491.72;5036841;28;45455;-66
2022/03/30 08:45:35;;;;;;;;;62.75;51.00;;;;;14.70;62.05;99498.50;5036848;28;45454;-66
2022/03/30 08:48:01;;;;;;;;;57.00;48.00;;;;;14.70;62.43;99495.88;5037057;28;45586;-66
2022/03/30 08:50:27;;;;;;;;;66.25;52.50;;;;;14.69;62.64;99496.78;5036968;28;45617;-66
2022/03/30 08:52:55;;;;;;;;;59.75;48.50;;;;;14.72;62.39;99504.56;5036587;28;45469;-67
2022/03/30 08:55:20;;;;;;;;;63.25;51.50;;;;;14.69;62.92;99493.31;5036535;28;45507;-67
2022/03/30 08:57:45;;;;;;;;;59.75;48.50;;;;;14.70;62.18;99493.22;5036910;28;45363;-66
2022/03/30 09:00:17;;;;;;;;;65.25;53.00;;;;;14.74;62.41;99494.69;5036662;28;45356;-67
2022/03/30 09:02:50;;;;;;;;;65.50;51.00;;;;;14.74;62.43;99502.63;5036277;28;46034;-66
2022/03/30 09:05:19;;;;;;;;;66.25;49.50;;;;;14.74;63.02;99499.97;5036396;28;45396;-66
2022/03/30 09:07:51;;;;;;;;;64.50;52.25;;;;;14.76;62.87;99492.78;5036612;28;45466;-67
2022/03/30 09:10:21;;;;;;;;;61.00;48.50;;;;;14.76;62.55;99495.44;5036292;28;45524;-66
2022/03/30 09:12:50;;;;;;;;;66.75;54.00;;;;;14.77;62.22;99504.22;5036069;28;46206;-67
2022/03/30 09:15:17;;;;;;;;;64.00;49.00;;;;;14.74;62.83;99499.97;5036456;28;45423;-67
2022/03/30 09:17:43;;;;;;;;;65.75;53.25;;;;;14.72;62.22;99487.78;5036470;28;45453;-67
2022/03/30 09:20:20;;;;;;;;;64.25;52.00;;;;;14.78;62.75;99505.91;5036249;28;45679;-66
2022/03/30 09:22:58;;;;;;;;;66.25;52.75;;;;;14.79;61.89;99499.66;5036014;28;47107;-67
2022/03/30 09:25:29;;;;;;;;;67.75;53.00;;;;;14.82;62.02;99504.72;5036072;28;45358;-67
2022/03/30 09:27:57;;;;;;;;;66.25;52.75;;;;;14.85;62.35;99493.09;5036051;28;45489;-67
2022/03/30 09:30:24;;;;;;;;;65.75;51.00;;;;;14.89;62.22;99490.13;5036265;28;45401;-67
2022/03/30 09:32:52;;;;;;;;;67.00;53.00;;;;;14.85;62.14;99495.72;5035973;28;47306;-66
2022/03/30 09:35:28;;;;;;;;;63.75;52.50;;;;;14.91;61.80;99497.94;5035902;28;45501;-65
2022/03/30 09:37:59;;;;;;;;;68.00;54.25;;;;;14.93;62.40;99494.22;5036200;28;45521;-66
2022/03/30 09:40:35;;;;;;;;;61.00;49.50;;;;;14.98;62.07;99496.56;5036069;28;45576;-66
2022/03/30 09:43:12;;;;;;;;;63.25;51.00;;;;;14.98;61.73;99485.97;5036001;28;46166;-66
2022/03/30 09:45:37;;;;;;;;;65.75;52.00;;;;;15.02;61.61;99490.94;5035664;28;45524;-67
2022/03/30 09:48:10;;;;;;;;;64.00;52.00;;;;;15.07;61.31;99484.44;5034768;28;45875;-67
2022/03/30 09:50:41;;;;;;;;;67.00;50.25;;;;;15.10;61.16;99487.75;5036015;28;45578;-67
2022/03/30 09:53:12;;;;;;;;;65.25;50.25;;;;;15.11;61.85;99484.13;5035740;28;46062;-67
2022/03/30 09:55:53;;;;;;;;;66.50;53.00;;;;;15.18;61.06;99487.19;5035729;28;45507;-66
2022/03/30 09:58:23;;;;;;;;;64.50;52.50;;;;;15.27;60.52;99496.28;5035726;28;45443;-67
2022/03/30 10:01:03;;;;;;;;;63.25;51.25;;;;;15.30;60.68;99491.59;5034348;28;45561;-67
2022/03/30 10:03:48;;;;;;;;;65.25;50.25;;;;;15.32;60.47;99497.63;5034971;28;46572;-66
2022/03/30 10:06:26;;;;;;;;;67.75;55.00;;;;;15.31;60.01;99485.31;5035081;28;45319;-67
2022/03/30 10:08:52;;;;;;;;;63.25;51.00;;;;;15.35;60.44;99486.81;5035446;28;45490;-66
2022/03/30 10:11:20;;;;;;;;;61.25;51.25;;;;;15.38;60.28;99485.72;5035398;28;45526;-67
2022/03/30 10:13:48;;;;;;;;;61.25;49.25;;;;;15.39;60.17;99490.94;5035183;28;45412;-67
2022/03/30 10:16:13;;;;;;;;;60.25;48.50;;;;;15.36;60.24;99479.69;5035316;28;45498;-66
2022/03/30 10:18:40;;;;;;;;;67.00;51.50;;;;;15.31;59.78;99477.38;5035280;28;45420;-66
2022/03/30 10:21:15;;;;;;;;;64.75;52.00;;;;;15.33;59.68;99478.13;5034925;28;45498;-67
2022/03/30 10:23:59;;;;;;;;;63.75;50.50;;;;;15.28;59.30;99474.09;5035131;28;46090;-67
2022/03/30 10:26:48;;;;;;;;;64.00;51.00;;;;;15.27;59.71;99475.09;5035033;28;45404;-67
2022/03/30 10:29:16;;;;;;;;;63.75;49.75;;;;;15.33;59.92;99469.31;5035038;28;45505;-67
2022/03/30 10:31:41;;;;;;;;;65.75;49.75;;;;;15.37;59.25;99479.59;5035199;28;45497;-67
2022/03/30 10:34:27;;;;;;;;;66.00;52.50;;;;;15.40;59.58;99470.56;5034760;28;46235;-67
2022/03/30 10:37:09;;;;;;;;;65.75;51.75;;;;;15.32;60.24;99463.19;5034898;28;45369;-67
2022/03/30 10:39:52;;;;;;;;;61.00;50.25;;;;;15.32;59.08;99459.69;5034157;28;45506;-65
2022/03/30 10:42:18;;;;;;;;;62.75;51.25;;;;;15.25;59.34;99461.94;5035199;28;45449;-67
2022/03/30 10:44:46;;;;;;;;;60.75;49.00;;;;;15.28;59.89;99458.22;5034596;28;46017;-67
2022/03/30 10:47:16;;;;;;;;;67.50;52.50;;;;;15.32;59.26;99462.34;5034876;28;45466;-67
2022/03/30 10:49:54;;;;;;;;;65.50;51.50;;;;;15.38;59.11;99456.59;5033422;28;45466;-66
2022/03/30 10:52:47;;;;;;;;;64.50;51.50;;;;;15.43;59.11;99455.28;5034780;28;45437;-67
2022/03/30 10:55:12;;;;;;;;;67.75;51.75;;;;;15.45;58.92;99452.53;5034554;28;46219;-67
2022/03/30 10:58:03;;;;;;;;;63.25;51.00;;;;;15.46;58.90;99451.56;5034652;28;45454;-67
2022/03/30 11:00:39;;;;;;;;;63.25;49.25;;;;;15.44;58.72;99438.41;5034738;28;45510;-66
2022/03/30 11:03:09;;;;;;;;;65.00;50.50;;;;;15.52;58.93;99447.63;5034772;28;45403;-67
2022/03/30 11:05:36;;;;;;;;;66.75;52.50;;;;;15.58;58.85;99440.06;5034430;28;45517;-67
2022/03/30 11:08:03;;;;;;;;;62.25;50.75;;;;;15.62;58.14;99438.03;5034574;28;45487;-67
2022/03/30 11:10:48;;;;;;;;;63.25;51.75;;;;;15.65;58.42;99445.75;5034556;28;45495;-67
2022/03/30 11:13:23;;;;;;;;;61.50;51.00;;;;;15.65;57.49;99443.09;5034544;28;45426;-68
2022/03/30 11:16:00;;;;;;;;;63.25;49.25;;;;;15.63;56.61;99439.72;5032992;28;45510;-67
2022/03/30 11:18:27;;;;;;;;;62.25;49.25;;;;;15.58;57.91;99432.13;5034167;28;45611;-66
2022/03/30 11:21:15;;;;;;;;;63.25;51.00;;;;;15.61;57.06;99433.69;5032966;28;45439;-66
2022/03/30 11:24:02;;;;;;;;;63.75;49.50;;;;;15.61;56.71;99429.22;5034340;28;45501;-66
2022/03/30 11:27:00;;;;;;;;;61.00;49.00;;;;;15.59;56.98;99431.16;5032978;28;46452;-66
2022/03/30 11:29:40;;;;;;;;;63.75;51.00;;;;;15.57;57.60;99425.09;5034122;28;45460;-66